sensor_id;sensor_type;location;lat;lon;timestamp;pressure;altitude;pressure_sealevel;temperature;humidity
72285;BME280;60220;53.552;10.092;2023-02-15T00:01:58;102833.13;;;4.87;93.93
72285;BME280;60220;53.552;10.092;2023-02-15T00:04:25;102828.00;;;5.30;93.35
72285;BME280;60220;53.552;10.092;2023-02-15T00:07:13;102824.72;;;4.73;94.63
72285;BME280;60220;53.552;10.092;2023-02-15T00:09:39;102825.63;;;4.94;94.16
72285;BME280;60220;53.552;10.092;2023-02-15T00:12:05;102828.44;;;4.99;93.96
72285;BME280;60220;53.552;10.092;2023-02-15T00:14:33;102831.69;;;4.74;94.69
72285;BME280;60220;53.552;10.092;2023-02-15T00:16:59;102817.94;;;4.76;94.98
72285;BME280;60220;53.552;10.092;2023-02-15T00:19:25;102819.53;;;4.94;95.07
72285;BME280;60220;53.552;10.092;2023-02-15T00:21:54;102821.03;;;4.89;94.29
72285;BME280;60220;53.552;10.092;2023-02-15T00:24:21;102825.38;;;4.69;94.71
72285;BME280;60220;53.552;10.092;2023-02-15T00:26:49;102815.56;;;5.02;95.17
72285;BME280;60220;53.552;10.092;2023-02-15T00:29:18;102806.09;;;5.04;94.64
72285;BME280;60220;53.552;10.092;2023-02-15T00:31:45;102805.34;;;5.06;94.50
72285;BME280;60220;53.552;10.092;2023-02-15T00:34:13;102805.19;;;5.03;94.70
72285;BME280;60220;53.552;10.092;2023-02-15T00:36:39;102802.34;;;5.39;93.21
72285;BME280;60220;53.552;10.092;2023-02-15T00:39:05;102797.59;;;5.49;93.13
72285;BME280;60220;53.552;10.092;2023-02-15T00:41:33;102805.31;;;5.69;92.80
72285;BME280;60220;53.552;10.092;2023-02-15T00:44:02;102800.97;;;5.26;91.97
72285;BME280;60220;53.552;10.092;2023-02-15T00:46:28;102798.34;;;5.05;92.59
72285;BME280;60220;53.552;10.092;2023-02-15T00:48:54;102792.13;;;5.02;92.92
72285;BME280;60220;53.552;10.092;2023-02-15T00:51:20;102792.72;;;4.75;93.79
72285;BME280;60220;53.552;10.092;2023-02-15T00:53:47;102783.75;;;5.09;93.67
72285;BME280;60220;53.552;10.092;2023-02-15T00:56:13;102790.63;;;5.07;93.00
72285;BME280;60220;53.552;10.092;2023-02-15T00:58:40;102785.63;;;4.71;93.03
72285;BME280;60220;53.552;10.092;2023-02-15T01:01:09;102782.94;;;4.70;94.69
72285;BME280;60220;53.552;10.092;2023-02-15T01:03:35;102786.78;;;4.99;94.28
72285;BME280;60220;53.552;10.092;2023-02-15T01:06:02;102783.56;;;5.25;93.73
72285;BME280;60220;53.552;10.092;2023-02-15T01:08:29;102787.19;;;4.87;93.42
72285;BME280;60220;53.552;10.092;2023-02-15T01:10:56;102783.16;;;4.74;94.21
72285;BME280;60220;53.552;10.092;2023-02-15T01:13:22;102791.19;;;4.41;94.97
72285;BME280;60220;53.552;10.092;2023-02-15T01:15:54;102796.88;;;4.51;96.20
72285;BME280;60220;53.552;10.092;2023-02-15T01:18:21;102786.66;;;4.96;95.79
72285;BME280;60220;53.552;10.092;2023-02-15T01:20:47;102782.88;;;4.68;95.10
72285;BME280;60220;53.552;10.092;2023-02-15T01:23:15;102776.06;;;4.51;96.63
72285;BME280;60220;53.552;10.092;2023-02-15T01:25:41;102773.59;;;4.35;96.44
72285;BME280;60220;53.552;10.092;2023-02-15T01:28:07;102761.63;;;4.78;97.05
72285;BME280;60220;53.552;10.092;2023-02-15T01:30:36;102757.03;;;5.13;95.41
72285;BME280;60220;53.552;10.092;2023-02-15T01:33:02;102762.16;;;5.32;94.06
72285;BME280;60220;53.552;10.092;2023-02-15T01:35:28;102753.97;;;5.23;93.08
72285;BME280;60220;53.552;10.092;2023-02-15T01:37:55;102744.72;;;4.48;93.77
72285;BME280;60220;53.552;10.092;2023-02-15T01:40:23;102754.06;;;4.83;94.52
72285;BME280;60220;53.552;10.092;2023-02-15T01:42:50;102748.69;;;5.42;93.74
72285;BME280;60220;53.552;10.092;2023-02-15T01:45:20;102753.81;;;4.98;93.77
72285;BME280;60220;53.552;10.092;2023-02-15T01:47:50;102749.72;;;5.25;93.23
72285;BME280;60220;53.552;10.092;2023-02-15T01:50:22;102736.25;;;4.94;93.31
72285;BME280;60220;53.552;10.092;2023-02-15T01:52:52;102744.28;;;4.78;94.27
72285;BME280;60220;53.552;10.092;2023-02-15T01:55:20;102736.25;;;4.94;93.73
72285;BME280;60220;53.552;10.092;2023-02-15T01:57:50;102735.59;;;5.41;92.99
72285;BME280;60220;53.552;10.092;2023-02-15T02:00:17;102743.09;;;5.33;93.05
72285;BME280;60220;53.552;10.092;2023-02-15T02:02:45;102736.34;;;5.38;92.99
72285;BME280;60220;53.552;10.092;2023-02-15T02:05:15;102733.84;;;4.98;92.25
72285;BME280;60220;53.552;10.092;2023-02-15T02:07:44;102731.69;;;5.09;92.11
72285;BME280;60220;53.552;10.092;2023-02-15T02:10:15;102722.47;;;5.60;91.30
72285;BME280;60220;53.552;10.092;2023-02-15T02:12:45;102722.44;;;5.15;91.56
72285;BME280;60220;53.552;10.092;2023-02-15T02:15:13;102722.16;;;4.89;92.15
72285;BME280;60220;53.552;10.092;2023-02-15T02:17:49;102719.28;;;5.02;92.34
72285;BME280;60220;53.552;10.092;2023-02-15T02:23:30;102702.66;;;4.78;92.90
72285;BME280;60220;53.552;10.092;2023-02-15T02:26:21;102704.41;;;4.99;92.38
72285;BME280;60220;53.552;10.092;2023-02-15T02:29:26;102698.47;;;4.41;92.87
72285;BME280;60220;53.552;10.092;2023-02-15T02:32:31;102704.91;;;4.91;94.08
72285;BME280;60220;53.552;10.092;2023-02-15T02:35:02;102697.78;;;4.45;95.19
72285;BME280;60220;53.552;10.092;2023-02-15T02:37:34;102686.00;;;4.53;95.10
72285;BME280;60220;53.552;10.092;2023-02-15T02:40:07;102683.22;;;4.69;93.57
72285;BME280;60220;53.552;10.092;2023-02-15T02:42:40;102683.84;;;4.43;94.43
72285;BME280;60220;53.552;10.092;2023-02-15T02:45:08;102679.72;;;4.29;95.17
72285;BME280;60220;53.552;10.092;2023-02-15T02:47:39;102683.59;;;4.18;95.56
72285;BME280;60220;53.552;10.092;2023-02-15T02:50:09;102688.03;;;4.81;95.64
72285;BME280;60220;53.552;10.092;2023-02-15T02:52:40;102673.56;;;4.46;94.62
72285;BME280;60220;53.552;10.092;2023-02-15T02:55:12;102681.97;;;4.41;95.88
72285;BME280;60220;53.552;10.092;2023-02-15T02:57:43;102685.16;;;4.54;95.48
72285;BME280;60220;53.552;10.092;2023-02-15T03:00:12;102683.41;;;4.13;94.53
72285;BME280;60220;53.552;10.092;2023-02-15T03:02:42;102685.19;;;4.35;96.27
72285;BME280;60220;53.552;10.092;2023-02-15T03:05:16;102683.56;;;4.37;95.59
72285;BME280;60220;53.552;10.092;2023-02-15T03:07:47;102674.22;;;4.61;95.75
72285;BME280;60220;53.552;10.092;2023-02-15T03:10:15;102669.50;;;4.53;95.47
72285;BME280;60220;53.552;10.092;2023-02-15T03:12:43;102671.38;;;4.36;94.34
72285;BME280;60220;53.552;10.092;2023-02-15T03:15:15;102668.34;;;4.46;94.50
72285;BME280;60220;53.552;10.092;2023-02-15T03:17:45;102671.28;;;3.95;95.82
72285;BME280;60220;53.552;10.092;2023-02-15T03:20:18;102670.19;;;4.28;95.49
72285;BME280;60220;53.552;10.092;2023-02-15T03:22:50;102666.84;;;3.92;96.21
72285;BME280;60220;53.552;10.092;2023-02-15T03:25:21;102659.16;;;4.14;95.85
72285;BME280;60220;53.552;10.092;2023-02-15T03:27:51;102656.25;;;4.07;96.10
72285;BME280;60220;53.552;10.092;2023-02-15T03:30:21;102645.34;;;4.15;95.88
72285;BME280;60220;53.552;10.092;2023-02-15T03:32:49;102640.69;;;4.27;95.83
72285;BME280;60220;53.552;10.092;2023-02-15T03:35:18;102647.63;;;4.08;95.72
72285;BME280;60220;53.552;10.092;2023-02-15T03:37:48;102644.22;;;4.29;95.23
72285;BME280;60220;53.552;10.092;2023-02-15T03:40:18;102646.84;;;4.50;95.30
72285;BME280;60220;53.552;10.092;2023-02-15T03:43:17;102647.00;;;4.13;94.50
72285;BME280;60220;53.552;10.092;2023-02-15T03:45:51;102643.09;;;4.23;94.08
72285;BME280;60220;53.552;10.092;2023-02-15T03:48:25;102648.44;;;4.07;94.15
72285;BME280;60220;53.552;10.092;2023-02-15T03:50:54;102638.13;;;4.08;94.57
72285;BME280;60220;53.552;10.092;2023-02-15T03:53:42;102641.22;;;3.80;95.07
72285;BME280;60220;53.552;10.092;2023-02-15T03:56:08;102637.06;;;4.24;94.42
72285;BME280;60220;53.552;10.092;2023-02-15T03:58:34;102631.78;;;4.02;94.34
72285;BME280;60220;53.552;10.092;2023-02-15T04:01:26;102631.66;;;4.19;93.61
72285;BME280;60220;53.552;10.092;2023-02-15T04:04:29;102629.13;;;4.21;93.13
72285;BME280;60220;53.552;10.092;2023-02-15T04:06:57;102632.41;;;4.57;92.93
72285;BME280;60220;53.552;10.092;2023-02-15T04:09:23;102629.22;;;4.64;91.97
72285;BME280;60220;53.552;10.092;2023-02-15T04:12:07;102621.34;;;4.21;92.46
72285;BME280;60220;53.552;10.092;2023-02-15T04:14:33;102624.41;;;4.31;93.50
72285;BME280;60220;53.552;10.092;2023-02-15T04:17:17;102629.88;;;4.38;92.26
72285;BME280;60220;53.552;10.092;2023-02-15T04:19:44;102627.47;;;4.02;93.23
72285;BME280;60220;53.552;10.092;2023-02-15T04:22:32;102623.81;;;3.99;93.92
72285;BME280;60220;53.552;10.092;2023-02-15T04:25:16;102629.09;;;4.00;93.17
72285;BME280;60220;53.552;10.092;2023-02-15T04:27:43;102614.66;;;4.07;92.89
72285;BME280;60220;53.552;10.092;2023-02-15T04:30:11;102617.41;;;4.30;92.78
72285;BME280;60220;53.552;10.092;2023-02-15T04:32:37;102617.81;;;4.00;92.72
72285;BME280;60220;53.552;10.092;2023-02-15T04:35:05;102609.47;;;4.07;92.27
72285;BME280;60220;53.552;10.092;2023-02-15T04:37:32;102617.06;;;3.64;93.30
72285;BME280;60220;53.552;10.092;2023-02-15T04:39:58;102615.44;;;3.66;94.60
72285;BME280;60220;53.552;10.092;2023-02-15T04:42:24;102615.72;;;3.72;94.04
72285;BME280;60220;53.552;10.092;2023-02-15T04:44:50;102608.13;;;3.57;94.43
72285;BME280;60220;53.552;10.092;2023-02-15T04:47:16;102604.84;;;3.42;95.65
72285;BME280;60220;53.552;10.092;2023-02-15T04:49:45;102604.00;;;3.24;95.42
72285;BME280;60220;53.552;10.092;2023-02-15T04:52:11;102599.94;;;3.67;95.58
72285;BME280;60220;53.552;10.092;2023-02-15T04:54:38;102603.34;;;3.66;96.15
72285;BME280;60220;53.552;10.092;2023-02-15T04:57:04;102600.75;;;3.66;94.23
72285;BME280;60220;53.552;10.092;2023-02-15T04:59:32;102599.03;;;3.47;94.71
72285;BME280;60220;53.552;10.092;2023-02-15T05:01:58;102596.91;;;3.39;95.07
72285;BME280;60220;53.552;10.092;2023-02-15T05:04:26;102603.72;;;3.18;94.97
72285;BME280;60220;53.552;10.092;2023-02-15T05:06:52;102590.59;;;3.15;95.65
72285;BME280;60220;53.552;10.092;2023-02-15T05:09:19;102590.25;;;3.07;95.92
72285;BME280;60220;53.552;10.092;2023-02-15T05:11:45;102584.06;;;3.42;95.11
72285;BME280;60220;53.552;10.092;2023-02-15T05:14:12;102588.69;;;3.30;95.14
72285;BME280;60220;53.552;10.092;2023-02-15T05:16:38;102590.84;;;3.58;94.21
72285;BME280;60220;53.552;10.092;2023-02-15T05:19:05;102597.00;;;3.03;94.03
72285;BME280;60220;53.552;10.092;2023-02-15T05:21:35;102593.03;;;3.12;94.13
72285;BME280;60220;53.552;10.092;2023-02-15T05:24:01;102589.50;;;2.92;94.70
72285;BME280;60220;53.552;10.092;2023-02-15T05:26:47;102591.72;;;2.84;94.90
72285;BME280;60220;53.552;10.092;2023-02-15T05:29:32;102586.41;;;2.81;95.67
72285;BME280;60220;53.552;10.092;2023-02-15T05:31:58;102579.59;;;2.83;95.73
72285;BME280;60220;53.552;10.092;2023-02-15T05:34:24;102570.03;;;2.82;96.25
72285;BME280;60220;53.552;10.092;2023-02-15T05:36:50;102566.47;;;2.45;96.51
72285;BME280;60220;53.552;10.092;2023-02-15T05:39:16;102572.03;;;2.35;97.22
72285;BME280;60220;53.552;10.092;2023-02-15T05:41:42;102576.34;;;2.52;96.97
72285;BME280;60220;53.552;10.092;2023-02-15T05:44:09;102580.50;;;2.84;96.83
72285;BME280;60220;53.552;10.092;2023-02-15T05:46:37;102574.84;;;2.92;95.99
72285;BME280;60220;53.552;10.092;2023-02-15T05:49:04;102567.59;;;2.85;96.32
72285;BME280;60220;53.552;10.092;2023-02-15T05:51:31;102566.47;;;2.80;96.42
72285;BME280;60220;53.552;10.092;2023-02-15T05:53:57;102565.91;;;3.05;95.76
72285;BME280;60220;53.552;10.092;2023-02-15T05:56:26;102557.69;;;3.14;95.43
72285;BME280;60220;53.552;10.092;2023-02-15T05:58:52;102561.38;;;2.64;95.78
72285;BME280;60220;53.552;10.092;2023-02-15T06:01:21;102566.84;;;2.70;96.47
72285;BME280;60220;53.552;10.092;2023-02-15T06:03:48;102565.97;;;2.52;97.05
72285;BME280;60220;53.552;10.092;2023-02-15T06:06:14;102560.03;;;2.37;97.48
72285;BME280;60220;53.552;10.092;2023-02-15T06:08:41;102563.13;;;3.00;97.54
72285;BME280;60220;53.552;10.092;2023-02-15T06:11:07;102560.50;;;2.64;97.59
72285;BME280;60220;53.552;10.092;2023-02-15T06:13:36;102542.72;;;2.18;97.78
72285;BME280;60220;53.552;10.092;2023-02-15T06:16:02;102556.19;;;2.64;97.63
72285;BME280;60220;53.552;10.092;2023-02-15T06:18:30;102558.22;;;3.07;97.05
72285;BME280;60220;53.552;10.092;2023-02-15T06:20:56;102561.13;;;3.32;96.13
72285;BME280;60220;53.552;10.092;2023-02-15T06:23:22;102571.09;;;3.23;94.50
72285;BME280;60220;53.552;10.092;2023-02-15T06:25:48;102562.97;;;2.97;94.90
72285;BME280;60220;53.552;10.092;2023-02-15T06:28:18;102569.47;;;3.07;95.04
72285;BME280;60220;53.552;10.092;2023-02-15T06:30:44;102581.78;;;3.11;94.95
72285;BME280;60220;53.552;10.092;2023-02-15T06:33:10;102562.69;;;2.91;94.43
72285;BME280;60220;53.552;10.092;2023-02-15T06:35:36;102577.19;;;3.06;94.68
72285;BME280;60220;53.552;10.092;2023-02-15T06:38:03;102579.81;;;3.25;94.76
72285;BME280;60220;53.552;10.092;2023-02-15T06:40:29;102578.00;;;3.04;93.96
72285;BME280;60220;53.552;10.092;2023-02-15T06:42:55;102570.09;;;3.98;95.29
72285;BME280;60220;53.552;10.092;2023-02-15T06:45:23;102571.69;;;3.36;94.72
72285;BME280;60220;53.552;10.092;2023-02-15T06:47:51;102570.25;;;2.87;93.81
72285;BME280;60220;53.552;10.092;2023-02-15T06:50:17;102576.00;;;2.99;93.97
72285;BME280;60220;53.552;10.092;2023-02-15T06:52:43;102569.22;;;2.83;93.46
72285;BME280;60220;53.552;10.092;2023-02-15T06:55:09;102568.47;;;2.86;93.93
72285;BME280;60220;53.552;10.092;2023-02-15T06:57:36;102570.56;;;2.57;94.02
72285;BME280;60220;53.552;10.092;2023-02-15T07:00:02;102566.19;;;2.74;94.69
72285;BME280;60220;53.552;10.092;2023-02-15T07:02:30;102561.50;;;2.32;95.60
72285;BME280;60220;53.552;10.092;2023-02-15T07:04:58;102566.41;;;2.79;96.05
72285;BME280;60220;53.552;10.092;2023-02-15T07:07:26;102559.06;;;2.35;95.78
72285;BME280;60220;53.552;10.092;2023-02-15T07:09:55;102551.97;;;2.31;95.95
72285;BME280;60220;53.552;10.092;2023-02-15T07:12:21;102558.25;;;2.71;96.05
72285;BME280;60220;53.552;10.092;2023-02-15T07:15:06;102555.53;;;2.68;95.69
72285;BME280;60220;53.552;10.092;2023-02-15T07:17:33;102554.09;;;2.92;94.94
72285;BME280;60220;53.552;10.092;2023-02-15T07:19:59;102550.56;;;2.37;94.84
72285;BME280;60220;53.552;10.092;2023-02-15T07:22:25;102548.03;;;2.56;94.65
72285;BME280;60220;53.552;10.092;2023-02-15T07:24:51;102543.09;;;3.73;93.31
72285;BME280;60220;53.552;10.092;2023-02-15T07:27:20;102548.63;;;4.02;91.01
72285;BME280;60220;53.552;10.092;2023-02-15T07:29:46;102542.13;;;3.33;90.18
72285;BME280;60220;53.552;10.092;2023-02-15T07:32:12;102543.31;;;2.83;91.03
72285;BME280;60220;53.552;10.092;2023-02-15T07:34:40;102547.47;;;2.62;93.55
72285;BME280;60220;53.552;10.092;2023-02-15T07:37:06;102539.00;;;2.84;94.19
72285;BME280;60220;53.552;10.092;2023-02-15T07:39:32;102542.28;;;2.62;94.31
72285;BME280;60220;53.552;10.092;2023-02-15T07:41:59;102536.94;;;2.24;94.50
72285;BME280;60220;53.552;10.092;2023-02-15T07:44:26;102535.88;;;2.20;94.42
72285;BME280;60220;53.552;10.092;2023-02-15T07:46:52;102528.06;;;2.19;94.94
72285;BME280;60220;53.552;10.092;2023-02-15T07:49:20;102523.00;;;2.22;94.85
72285;BME280;60220;53.552;10.092;2023-02-15T07:51:46;102522.28;;;2.42;95.04
72285;BME280;60220;53.552;10.092;2023-02-15T07:54:15;102522.56;;;2.12;95.25
72285;BME280;60220;53.552;10.092;2023-02-15T07:56:41;102525.97;;;2.65;95.76
72285;BME280;60220;53.552;10.092;2023-02-15T07:59:07;102522.41;;;2.45;95.27
72285;BME280;60220;53.552;10.092;2023-02-15T08:01:38;102520.38;;;2.38;95.44
72285;BME280;60220;53.552;10.092;2023-02-15T08:04:05;102526.16;;;2.69;94.11
72285;BME280;60220;53.552;10.092;2023-02-15T08:06:33;102525.31;;;2.51;93.89
72285;BME280;60220;53.552;10.092;2023-02-15T08:09:00;102514.09;;;3.64;92.94
72285;BME280;60220;53.552;10.092;2023-02-15T08:11:28;102517.19;;;2.80;92.08
72285;BME280;60220;53.552;10.092;2023-02-15T08:13:59;102512.19;;;2.12;93.09
72285;BME280;60220;53.552;10.092;2023-02-15T08:16:31;102508.66;;;2.46;93.68
72285;BME280;60220;53.552;10.092;2023-02-15T08:18:59;102509.81;;;2.35;93.94
72285;BME280;60220;53.552;10.092;2023-02-15T08:21:27;102505.56;;;2.53;94.56
72285;BME280;60220;53.552;10.092;2023-02-15T08:23:53;102515.09;;;2.19;94.85
72285;BME280;60220;53.552;10.092;2023-02-15T08:26:22;102508.94;;;2.16;95.02
72285;BME280;60220;53.552;10.092;2023-02-15T08:28:48;102509.97;;;2.02;94.10
72285;BME280;60220;53.552;10.092;2023-02-15T08:31:16;102506.19;;;1.62;95.79
72285;BME280;60220;53.552;10.092;2023-02-15T08:33:43;102513.81;;;2.10;95.61
72285;BME280;60220;53.552;10.092;2023-02-15T08:36:13;102504.63;;;1.99;95.87
72285;BME280;60220;53.552;10.092;2023-02-15T08:38:39;102502.59;;;2.28;95.17
72285;BME280;60220;53.552;10.092;2023-02-15T08:41:13;102504.94;;;2.05;95.11
72285;BME280;60220;53.552;10.092;2023-02-15T08:43:39;102510.91;;;2.04;95.14
72285;BME280;60220;53.552;10.092;2023-02-15T08:46:06;102515.16;;;2.02;94.89
72285;BME280;60220;53.552;10.092;2023-02-15T08:48:32;102509.38;;;2.08;95.28
72285;BME280;60220;53.552;10.092;2023-02-15T08:50:58;102494.69;;;1.73;95.22
72285;BME280;60220;53.552;10.092;2023-02-15T08:53:25;102500.06;;;2.11;95.61
72285;BME280;60220;53.552;10.092;2023-02-15T08:55:57;102499.19;;;2.29;94.74
72285;BME280;60220;53.552;10.092;2023-02-15T08:58:23;102504.13;;;2.06;94.84
72285;BME280;60220;53.552;10.092;2023-02-15T09:00:49;102498.59;;;2.52;94.02
72285;BME280;60220;53.552;10.092;2023-02-15T09:03:15;102490.75;;;2.33;93.89
72285;BME280;60220;53.552;10.092;2023-02-15T09:05:41;102494.56;;;1.88;94.41
72285;BME280;60220;53.552;10.092;2023-02-15T09:08:07;102495.09;;;2.51;93.97
72285;BME280;60220;53.552;10.092;2023-02-15T09:10:34;102493.81;;;2.61;92.70
72285;BME280;60220;53.552;10.092;2023-02-15T09:13:00;102491.84;;;3.31;90.66
72285;BME280;60220;53.552;10.092;2023-02-15T09:15:26;102493.25;;;3.23;90.40
72285;BME280;60220;53.552;10.092;2023-02-15T09:17:54;102494.00;;;2.46;91.84
72285;BME280;60220;53.552;10.092;2023-02-15T09:20:20;102498.81;;;2.03;92.67
72285;BME280;60220;53.552;10.092;2023-02-15T09:22:47;102498.06;;;2.41;92.37
72285;BME280;60220;53.552;10.092;2023-02-15T09:25:13;102490.81;;;2.34;93.11
72285;BME280;60220;53.552;10.092;2023-02-15T09:27:40;102485.03;;;2.22;93.43
72285;BME280;60220;53.552;10.092;2023-02-15T09:30:07;102483.84;;;1.98;94.46
72285;BME280;60220;53.552;10.092;2023-02-15T09:32:33;102479.34;;;1.94;95.04
72285;BME280;60220;53.552;10.092;2023-02-15T09:34:59;102471.34;;;1.89;95.60
72285;BME280;60220;53.552;10.092;2023-02-15T09:37:25;102478.00;;;2.37;96.26
72285;BME280;60220;53.552;10.092;2023-02-15T09:39:53;102480.50;;;2.00;96.10
72285;BME280;60220;53.552;10.092;2023-02-15T09:42:45;102469.28;;;2.17;96.26
72285;BME280;60220;53.552;10.092;2023-02-15T09:45:34;102468.25;;;2.14;96.32
72285;BME280;60220;53.552;10.092;2023-02-15T09:48:32;102473.78;;;2.39;95.55
72285;BME280;60220;53.552;10.092;2023-02-15T09:51:23;102462.91;;;2.29;95.19
72285;BME280;60220;53.552;10.092;2023-02-15T09:54:15;102474.59;;;2.21;95.20
72285;BME280;60220;53.552;10.092;2023-02-15T09:56:48;102477.97;;;2.55;94.70
72285;BME280;60220;53.552;10.092;2023-02-15T09:59:26;102480.78;;;2.77;94.76
72285;BME280;60220;53.552;10.092;2023-02-15T10:02:05;102478.88;;;2.55;94.34
72285;BME280;60220;53.552;10.092;2023-02-15T10:04:51;102474.72;;;3.15;92.35
72285;BME280;60220;53.552;10.092;2023-02-15T10:07:29;102484.47;;;3.01;92.15
72285;BME280;60220;53.552;10.092;2023-02-15T10:10:08;102477.59;;;3.02;92.57
72285;BME280;60220;53.552;10.092;2023-02-15T10:12:52;102477.88;;;3.08;93.49
72285;BME280;60220;53.552;10.092;2023-02-15T10:15:30;102476.66;;;3.59;92.20
72285;BME280;60220;53.552;10.092;2023-02-15T10:21:11;102479.81;;;2.94;92.60
72285;BME280;60220;53.552;10.092;2023-02-15T10:24:07;102475.31;;;3.48;92.46
72285;BME280;60220;53.552;10.092;2023-02-15T10:26:43;102478.28;;;3.17;92.19
72285;BME280;60220;53.552;10.092;2023-02-15T10:29:20;102476.16;;;3.09;92.58
72285;BME280;60220;53.552;10.092;2023-02-15T10:31:57;102477.47;;;3.18;92.64
72285;BME280;60220;53.552;10.092;2023-02-15T10:34:34;102475.06;;;3.03;93.31
72285;BME280;60220;53.552;10.092;2023-02-15T10:37:38;102477.91;;;3.29;92.75
72285;BME280;60220;53.552;10.092;2023-02-15T10:40:19;102484.31;;;3.56;91.84
72285;BME280;60220;53.552;10.092;2023-02-15T10:42:59;102479.84;;;3.14;91.88
72285;BME280;60220;53.552;10.092;2023-02-15T10:45:39;102475.72;;;2.80;93.27
72285;BME280;60220;53.552;10.092;2023-02-15T10:48:23;102479.81;;;2.94;93.30
72285;BME280;60220;53.552;10.092;2023-02-15T10:50:57;102480.06;;;3.77;93.02
72285;BME280;60220;53.552;10.092;2023-02-15T10:53:35;102478.19;;;3.35;91.95
72285;BME280;60220;53.552;10.092;2023-02-15T10:56:11;102472.06;;;3.33;91.79
72285;BME280;60220;53.552;10.092;2023-02-15T10:58:52;102467.41;;;3.26;92.31
72285;BME280;60220;53.552;10.092;2023-02-15T11:01:28;102472.03;;;3.52;91.87
72285;BME280;60220;53.552;10.092;2023-02-15T11:04:14;102472.97;;;3.54;92.27
72285;BME280;60220;53.552;10.092;2023-02-15T11:06:53;102462.19;;;3.45;91.10
72285;BME280;60220;53.552;10.092;2023-02-15T11:09:22;102448.81;;;3.36;91.47
72285;BME280;60220;53.552;10.092;2023-02-15T11:11:56;102452.72;;;4.51;89.93
72285;BME280;60220;53.552;10.092;2023-02-15T11:14:33;102449.00;;;4.66;86.85
72285;BME280;60220;53.552;10.092;2023-02-15T11:17:04;102454.13;;;4.00;89.00
72285;BME280;60220;53.552;10.092;2023-02-15T11:19:35;102448.97;;;3.60;91.03
72285;BME280;60220;53.552;10.092;2023-02-15T11:22:04;102447.69;;;3.50;91.98
72285;BME280;60220;53.552;10.092;2023-02-15T11:24:39;102446.41;;;3.80;92.42
72285;BME280;60220;53.552;10.092;2023-02-15T11:27:17;102436.72;;;3.76;92.52
72285;BME280;60220;53.552;10.092;2023-02-15T11:29:55;102436.59;;;4.37;91.32
72285;BME280;60220;53.552;10.092;2023-02-15T11:32:26;102433.94;;;3.93;90.44
72285;BME280;60220;53.552;10.092;2023-02-15T11:34:57;102433.03;;;3.71;90.24
72285;BME280;60220;53.552;10.092;2023-02-15T11:37:28;102434.13;;;4.62;89.13
72285;BME280;60220;53.552;10.092;2023-02-15T11:39:56;102424.88;;;4.94;87.99
72285;BME280;60220;53.552;10.092;2023-02-15T11:42:25;102426.06;;;4.56;86.90
72285;BME280;60220;53.552;10.092;2023-02-15T11:44:58;102422.09;;;4.44;85.78
72285;BME280;60220;53.552;10.092;2023-02-15T11:47:27;102425.06;;;4.30;87.17
72285;BME280;60220;53.552;10.092;2023-02-15T11:49:54;102418.09;;;3.86;89.61
72285;BME280;60220;53.552;10.092;2023-02-15T11:52:23;102416.59;;;4.81;90.80
72285;BME280;60220;53.552;10.092;2023-02-15T11:54:52;102401.50;;;4.48;89.72
72285;BME280;60220;53.552;10.092;2023-02-15T11:57:23;102396.00;;;4.87;88.37
72285;BME280;60220;53.552;10.092;2023-02-15T12:00:00;102388.78;;;4.56;89.62
72285;BME280;60220;53.552;10.092;2023-02-15T12:02:31;102386.72;;;4.25;88.81
72285;BME280;60220;53.552;10.092;2023-02-15T12:05:05;102389.53;;;4.09;89.76
72285;BME280;60220;53.552;10.092;2023-02-15T12:07:40;102388.38;;;4.91;88.83
72285;BME280;60220;53.552;10.092;2023-02-15T12:10:17;102375.84;;;4.57;88.38
72285;BME280;60220;53.552;10.092;2023-02-15T12:12:48;102379.28;;;5.29;87.27
72285;BME280;60220;53.552;10.092;2023-02-15T12:15:29;102379.44;;;5.59;85.98
72285;BME280;60220;53.552;10.092;2023-02-15T12:17:56;102364.22;;;4.95;86.15
72285;BME280;60220;53.552;10.092;2023-02-15T12:20:28;102355.81;;;5.02;85.65
72285;BME280;60220;53.552;10.092;2023-02-15T12:23:00;102358.41;;;4.78;86.74
72285;BME280;60220;53.552;10.092;2023-02-15T12:25:33;102359.28;;;5.28;85.68
72285;BME280;60220;53.552;10.092;2023-02-15T12:28:02;102355.44;;;6.21;84.41
72285;BME280;60220;53.552;10.092;2023-02-15T12:30:32;102356.22;;;5.14;84.60
72285;BME280;60220;53.552;10.092;2023-02-15T12:33:07;102359.72;;;5.40;86.48
72285;BME280;60220;53.552;10.092;2023-02-15T12:35:40;102362.88;;;5.84;83.86
72285;BME280;60220;53.552;10.092;2023-02-15T12:38:23;102355.38;;;5.15;84.05
72285;BME280;60220;53.552;10.092;2023-02-15T12:40:57;102358.69;;;4.86;87.30
72285;BME280;60220;53.552;10.092;2023-02-15T12:43:26;102357.78;;;5.60;86.75
72285;BME280;60220;53.552;10.092;2023-02-15T12:46:13;102348.56;;;5.44;85.35
72285;BME280;60220;53.552;10.092;2023-02-15T12:48:40;102342.69;;;6.03;83.75
72285;BME280;60220;53.552;10.092;2023-02-15T12:51:12;102330.53;;;5.50;82.93
72285;BME280;60220;53.552;10.092;2023-02-15T12:53:39;102334.81;;;5.23;86.21
72285;BME280;60220;53.552;10.092;2023-02-15T12:56:10;102328.78;;;5.49;85.44
72285;BME280;60220;53.552;10.092;2023-02-15T12:58:37;102323.59;;;4.75;87.26
72285;BME280;60220;53.552;10.092;2023-02-15T13:01:12;102322.97;;;5.31;87.57
72285;BME280;60220;53.552;10.092;2023-02-15T13:03:55;102323.78;;;5.82;86.61
72285;BME280;60220;53.552;10.092;2023-02-15T13:06:23;102319.69;;;6.47;83.74
72285;BME280;60220;53.552;10.092;2023-02-15T13:08:54;102316.22;;;5.90;82.43
72285;BME280;60220;53.552;10.092;2023-02-15T13:11:26;102316.41;;;5.42;84.41
72285;BME280;60220;53.552;10.092;2023-02-15T13:13:55;102322.69;;;5.76;86.66
72285;BME280;60220;53.552;10.092;2023-02-15T13:16:28;102313.25;;;5.79;84.84